sensor_id;sensor_type;location;lat;lon;timestamp;pressure;altitude;pressure_sealevel;temperature;humidity
8575;BME280;4325;42.520;27.448;2023-11-21T00:01:33;100950.41;;;5.81;100.00
8575;BME280;4325;42.520;27.448;2023-11-21T00:04:00;100944.50;;;5.84;100.00
8575;BME280;4325;42.520;27.448;2023-11-21T00:06:27;100953.88;;;5.88;100.00
8575;BME280;4325;42.520;27.448;2023-11-21T00:08:55;100947.84;;;5.97;100.00
8575;BME280;4325;42.520;27.448;2023-11-21T00:11:22;100959.78;;;6.08;100.00
8575;BME280;4325;42.520;27.448;2023-11-21T00:13:50;100963.78;;;6.17;100.00
8575;BME280;4325;42.520;27.448;2023-11-21T00:16:17;100959.78;;;6.08;100.00
8575;BME280;4325;42.520;27.448;2023-11-21T00:18:46;100949.84;;;6.02;100.00
8575;BME280;4325;42.520;27.448;2023-11-21T00:21:13;100957.75;;;6.04;100.00
8575;BME280;4325;42.520;27.448;2023-11-21T00:23:40;100957.28;;;6.07;100.00
8575;BME280;4325;42.520;27.448;2023-11-21T00:26:07;100964.25;;;6.14;100.00
8575;BME280;4325;42.520;27.448;2023-11-21T00:28:34;100959.06;;;6.24;100.00
8575;BME280;4325;42.520;27.448;2023-11-21T00:31:01;100957.63;;;6.33;100.00
8575;BME280;4325;42.520;27.448;2023-11-21T00:33:28;100960.47;;;6.38;100.00
8575;BME280;4325;42.520;27.448;2023-11-21T00:35:56;100963.06;;;6.45;100.00
8575;BME280;4325;42.520;27.448;2023-11-21T00:38:23;100957.59;;;6.56;100.00
8575;BME280;4325;42.520;27.448;2023-11-21T00:40:50;100945.53;;;6.52;100.00
8575;BME280;4325;42.520;27.448;2023-11-21T00:43:18;100947.41;;;6.63;100.00
8575;BME280;4325;42.520;27.448;2023-11-21T00:45:45;100941.97;;;6.63;100.00
8575;BME280;4325;42.520;27.448;2023-11-21T00:48:14;100950.81;;;6.71;100.00
8575;BME280;4325;42.520;27.448;2023-11-21T00:50:41;100942.19;;;6.74;100.00
8575;BME280;4325;42.520;27.448;2023-11-21T00:53:10;100955.06;;;6.78;100.00
8575;BME280;4325;42.520;27.448;2023-11-21T00:55:37;100955.88;;;6.79;100.00
8575;BME280;4325;42.520;27.448;2023-11-21T00:58:05;100948.78;;;6.78;100.00
8575;BME280;4325;42.520;27.448;2023-11-21T01:00:32;100945.47;;;6.76;100.00
8575;BME280;4325;42.520;27.448;2023-11-21T01:02:59;100947.47;;;6.80;100.00
8575;BME280;4325;42.520;27.448;2023-11-21T01:05:27;100943.91;;;6.80;100.00
8575;BME280;4325;42.520;27.448;2023-11-21T01:07:55;100943.34;;;6.78;100.00
8575;BME280;4325;42.520;27.448;2023-11-21T01:10:23;100950.66;;;6.77;100.00
8575;BME280;4325;42.520;27.448;2023-11-21T01:12:50;100961.22;;;6.74;100.00
8575;BME280;4325;42.520;27.448;2023-11-21T01:15:17;100949.75;;;6.72;100.00
8575;BME280;4325;42.520;27.448;2023-11-21T01:17:44;100953.19;;;6.67;100.00
8575;BME280;4325;42.520;27.448;2023-11-21T01:20:11;100949.66;;;6.67;100.00
8575;BME280;4325;42.520;27.448;2023-11-21T01:22:38;100952.38;;;6.67;100.00
8575;BME280;4325;42.520;27.448;2023-11-21T01:25:05;100946.31;;;6.64;100.00
8575;BME280;4325;42.520;27.448;2023-11-21T01:27:34;100943.50;;;6.59;100.00
8575;BME280;4325;42.520;27.448;2023-11-21T01:30:03;100949.19;;;6.58;100.00
8575;BME280;4325;42.520;27.448;2023-11-21T01:32:30;100953.00;;;6.57;100.00
8575;BME280;4325;42.520;27.448;2023-11-21T01:34:57;100959.13;;;6.52;100.00
8575;BME280;4325;42.520;27.448;2023-11-21T01:37:24;100959.38;;;6.51;100.00
8575;BME280;4325;42.520;27.448;2023-11-21T01:39:53;100964.72;;;6.46;100.00
8575;BME280;4325;42.520;27.448;2023-11-21T01:42:20;100967.56;;;6.39;100.00
8575;BME280;4325;42.520;27.448;2023-11-21T01:44:49;100962.59;;;6.36;100.00
8575;BME280;4325;42.520;27.448;2023-11-21T01:47:16;100969.69;;;6.37;100.00
8575;BME280;4325;42.520;27.448;2023-11-21T01:49:44;100957.63;;;6.33;100.00
8575;BME280;4325;42.520;27.448;2023-11-21T01:52:12;100958.13;;;6.30;100.00
8575;BME280;4325;42.520;27.448;2023-11-21T01:54:40;100960.22;;;6.28;100.00
8575;BME280;4325;42.520;27.448;2023-11-21T01:57:08;100952.56;;;6.25;100.00
8575;BME280;4325;42.520;27.448;2023-11-21T01:59:36;100952.78;;;6.24;100.00
8575;BME280;4325;42.520;27.448;2023-11-21T02:02:05;100957.91;;;6.20;100.00
8575;BME280;4325;42.520;27.448;2023-11-21T02:04:33;100958.38;;;6.17;100.00
8575;BME280;4325;42.520;27.448;2023-11-21T02:07:00;100951.75;;;6.13;100.00
8575;BME280;4325;42.520;27.448;2023-11-21T02:09:28;100952.34;;;6.15;100.00
8575;BME280;4325;42.520;27.448;2023-11-21T02:11:55;100951.25;;;6.16;100.00
8575;BME280;4325;42.520;27.448;2023-11-21T02:14:24;100957.28;;;6.18;100.00
8575;BME280;4325;42.520;27.448;2023-11-21T02:16:52;100954.09;;;6.21;100.00
8575;BME280;4325;42.520;27.448;2023-11-21T02:19:22;100957.91;;;6.20;100.00
8575;BME280;4325;42.520;27.448;2023-11-21T02:21:50;100949.50;;;6.22;100.00
8575;BME280;4325;42.520;27.448;2023-11-21T02:24:20;100949.75;;;6.20;100.00
8575;BME280;4325;42.520;27.448;2023-11-21T02:26:47;100956.22;;;6.19;100.00
8575;BME280;4325;42.520;27.448;2023-11-21T02:29:16;100955.97;;;6.21;100.00
8575;BME280;4325;42.520;27.448;2023-11-21T02:31:44;100950.31;;;6.22;100.00
8575;BME280;4325;42.520;27.448;2023-11-21T02:34:14;100952.31;;;6.27;100.00
8575;BME280;4325;42.520;27.448;2023-11-21T02:36:42;100954.31;;;6.31;100.00
8575;BME280;4325;42.520;27.448;2023-11-21T02:39:09;100948.88;;;6.31;100.00
8575;BME280;4325;42.520;27.448;2023-11-21T02:41:38;100946.75;;;6.33;100.00
8575;BME280;4325;42.520;27.448;2023-11-21T02:44:05;100942.63;;;6.31;100.00
8575;BME280;4325;42.520;27.448;2023-11-21T02:46:33;100942.97;;;6.34;100.00
8575;BME280;4325;42.520;27.448;2023-11-21T02:49:00;100953.84;;;6.34;100.00
8575;BME280;4325;42.520;27.448;2023-11-21T02:51:46;100953.38;;;6.37;100.00
8575;BME280;4325;42.520;27.448;2023-11-21T02:54:13;100957.16;;;6.36;100.00
8575;BME280;4325;42.520;27.448;2023-11-21T02:56:43;100953.38;;;6.37;100.00
8575;BME280;4325;42.520;27.448;2023-11-21T02:59:11;100955.50;;;6.35;100.00
8575;BME280;4325;42.520;27.448;2023-11-21T03:01:38;100952.19;;;6.33;100.00
8575;BME280;4325;42.520;27.448;2023-11-21T03:04:05;100955.50;;;6.35;100.00
8575;BME280;4325;42.520;27.448;2023-11-21T03:06:32;100961.44;;;6.32;100.00
8575;BME280;4325;42.520;27.448;2023-11-21T03:08:59;100954.31;;;6.31;100.00
8575;BME280;4325;42.520;27.448;2023-11-21T03:11:26;100943.44;;;6.31;100.00
8575;BME280;4325;42.520;27.448;2023-11-21T03:13:55;100943.59;;;6.25;100.00
8575;BME280;4325;42.520;27.448;2023-11-21T03:16:22;100951.97;;;6.23;100.00
8575;BME280;4325;42.520;27.448;2023-11-21T03:18:49;100950.53;;;6.21;100.00
8575;BME280;4325;42.520;27.448;2023-11-21T03:21:16;100961.06;;;6.17;100.00
8575;BME280;4325;42.520;27.448;2023-11-21T03:23:43;100958.72;;;6.09;100.00
8575;BME280;4325;42.520;27.448;2023-11-21T03:26:12;100957.41;;;6.00;100.00
8575;BME280;4325;42.520;27.448;2023-11-21T03:28:39;100958.84;;;5.91;100.00
8575;BME280;4325;42.520;27.448;2023-11-21T03:31:07;100958.56;;;5.81;100.00
8575;BME280;4325;42.520;27.448;2023-11-21T03:33:35;100960.69;;;5.79;100.00
8575;BME280;4325;42.520;27.448;2023-11-21T03:36:02;100965.75;;;5.75;100.00
8575;BME280;4325;42.520;27.448;2023-11-21T03:38:29;100961.72;;;5.66;100.00
8575;BME280;4325;42.520;27.448;2023-11-21T03:40:56;100959.72;;;5.62;100.00
8575;BME280;4325;42.520;27.448;2023-11-21T03:43:23;100967.25;;;5.60;100.00
8575;BME280;4325;42.520;27.448;2023-11-21T03:45:50;100967.03;;;5.50;100.00
8575;BME280;4325;42.520;27.448;2023-11-21T03:48:18;100966.06;;;5.44;100.00
8575;BME280;4325;42.520;27.448;2023-11-21T03:50:45;100972.78;;;5.42;100.00
8575;BME280;4325;42.520;27.448;2023-11-21T03:53:13;100969.34;;;5.34;100.00
8575;BME280;4325;42.520;27.448;2023-11-21T03:55:40;100977.34;;;5.29;100.00
8575;BME280;4325;42.520;27.448;2023-11-21T03:58:07;100978.88;;;5.25;100.00
8575;BME280;4325;42.520;27.448;2023-11-21T04:00:34;100977.06;;;5.19;100.00
8575;BME280;4325;42.520;27.448;2023-11-21T04:03:01;100987.94;;;5.19;100.00
8575;BME280;4325;42.520;27.448;2023-11-21T04:05:29;100984.03;;;5.15;100.00
8575;BME280;4325;42.520;27.448;2023-11-21T04:07:57;100990.34;;;5.09;100.00
8575;BME280;4325;42.520;27.448;2023-11-21T04:10:23;100992.47;;;5.07;100.00
8575;BME280;4325;42.520;27.448;2023-11-21T04:12:50;100990.00;;;5.06;100.00
8575;BME280;4325;42.520;27.448;2023-11-21T04:15:17;100984.44;;;5.01;100.00
8575;BME280;4325;42.520;27.448;2023-11-21T04:17:44;100991.34;;;4.97;100.00
8575;BME280;4325;42.520;27.448;2023-11-21T04:20:11;100984.06;;;4.97;100.00
8575;BME280;4325;42.520;27.448;2023-11-21T04:22:40;100987.34;;;4.99;100.00
8575;BME280;4325;42.520;27.448;2023-11-21T04:25:09;100985.63;;;5.05;100.00
8575;BME280;4325;42.520;27.448;2023-11-21T04:27:36;100989.63;;;5.02;100.00
8575;BME280;4325;42.520;27.448;2023-11-21T04:30:04;100981.47;;;5.02;100.00
8575;BME280;4325;42.520;27.448;2023-11-21T04:32:32;100983.75;;;5.05;100.00
8575;BME280;4325;42.520;27.448;2023-11-21T04:34:59;100988.47;;;5.10;100.00
8575;BME280;4325;42.520;27.448;2023-11-21T04:37:26;101000.16;;;5.10;100.00
8575;BME280;4325;42.520;27.448;2023-11-21T04:39:54;100999.72;;;5.13;100.00
8575;BME280;4325;42.520;27.448;2023-11-21T04:42:21;100996.75;;;5.15;100.00
8575;BME280;4325;42.520;27.448;2023-11-21T04:44:48;101002.63;;;5.12;100.00
8575;BME280;4325;42.520;27.448;2023-11-21T04:47:15;101004.38;;;5.06;100.00
8575;BME280;4325;42.520;27.448;2023-11-21T04:49:46;101007.03;;;4.95;100.00
8575;BME280;4325;42.520;27.448;2023-11-21T04:52:14;101004.72;;;4.80;100.00
8575;BME280;4325;42.520;27.448;2023-11-21T04:54:45;101007.81;;;4.65;100.00
8575;BME280;4325;42.520;27.448;2023-11-21T04:57:14;101008.78;;;4.53;100.00
8575;BME280;4325;42.520;27.448;2023-11-21T04:59:43;101011.34;;;4.48;100.00
8575;BME280;4325;42.520;27.448;2023-11-21T05:02:10;101021.22;;;4.42;100.00
8575;BME280;4325;42.520;27.448;2023-11-21T05:04:37;101009.38;;;4.37;100.00
8575;BME280;4325;42.520;27.448;2023-11-21T05:07:04;101022.34;;;4.35;100.00
8575;BME280;4325;42.520;27.448;2023-11-21T05:09:31;101028.38;;;4.37;100.00
8575;BME280;4325;42.520;27.448;2023-11-21T05:11:58;101017.41;;;4.50;100.00
8575;BME280;4325;42.520;27.448;2023-11-21T05:14:27;101033.34;;;4.58;100.00
8575;BME280;4325;42.520;27.448;2023-11-21T05:16:54;101030.34;;;4.66;100.00
8575;BME280;4325;42.520;27.448;2023-11-21T05:19:21;101028.09;;;4.81;100.00
8575;BME280;4325;42.520;27.448;2023-11-21T05:21:48;101022.13;;;4.91;100.00
8575;BME280;4325;42.520;27.448;2023-11-21T05:24:15;101033.72;;;4.98;100.00
8575;BME280;4325;42.520;27.448;2023-11-21T05:26:42;101036.94;;;5.06;100.00
8575;BME280;4325;42.520;27.448;2023-11-21T05:29:09;101020.22;;;5.09;100.00
8575;BME280;4325;42.520;27.448;2023-11-21T05:31:38;101028.78;;;5.24;100.00
8575;BME280;4325;42.520;27.448;2023-11-21T05:34:05;101026.56;;;5.33;100.00
8575;BME280;4325;42.520;27.448;2023-11-21T05:36:32;101022.69;;;5.41;100.00
8575;BME280;4325;42.520;27.448;2023-11-21T05:38:59;101021.34;;;5.50;100.00
8575;BME280;4325;42.520;27.448;2023-11-21T05:41:26;101006.69;;;5.51;100.00
8575;BME280;4325;42.520;27.448;2023-11-21T05:43:53;101022.19;;;5.62;100.00
8575;BME280;4325;42.520;27.448;2023-11-21T05:46:20;101016.41;;;5.70;100.00
8575;BME280;4325;42.520;27.448;2023-11-21T05:48:48;101013.13;;;5.79;100.00
8575;BME280;4325;42.520;27.448;2023-11-21T05:51:16;101017.44;;;5.98;100.00
8575;BME280;4325;42.520;27.448;2023-11-21T05:53:43;101024.56;;;6.34;100.00
8575;BME280;4325;42.520;27.448;2023-11-21T05:56:10;101020.22;;;6.85;100.00
8575;BME280;4325;42.520;27.448;2023-11-21T05:58:37;101016.66;;;7.52;100.00
8575;BME280;4325;42.520;27.448;2023-11-21T06:01:05;101018.19;;;8.43;100.00
8575;BME280;4325;42.520;27.448;2023-11-21T06:03:35;101016.94;;;9.64;100.00
8575;BME280;4325;42.520;27.448;2023-11-21T06:06:03;101013.00;;;10.97;100.00
8575;BME280;4325;42.520;27.448;2023-11-21T06:08:31;101019.78;;;11.61;100.00
8575;BME280;4325;42.520;27.448;2023-11-21T06:10:57;101024.72;;;12.75;100.00
8575;BME280;4325;42.520;27.448;2023-11-21T06:13:24;101029.97;;;13.46;89.59
8575;BME280;4325;42.520;27.448;2023-11-21T06:15:51;101034.66;;;13.84;81.07
8575;BME280;4325;42.520;27.448;2023-11-21T06:18:19;101035.53;;;14.13;75.58
8575;BME280;4325;42.520;27.448;2023-11-21T06:20:46;101041.78;;;14.24;71.87
8575;BME280;4325;42.520;27.448;2023-11-21T06:23:14;101040.47;;;14.79;69.03
8575;BME280;4325;42.520;27.448;2023-11-21T06:25:41;101048.09;;;15.53;63.33
8575;BME280;4325;42.520;27.448;2023-11-21T06:28:08;101046.56;;;15.65;59.90
8575;BME280;4325;42.520;27.448;2023-11-21T06:30:35;101060.69;;;16.52;56.55
8575;BME280;4325;42.520;27.448;2023-11-21T06:33:03;101048.91;;;16.60;53.95
8575;BME280;4325;42.520;27.448;2023-11-21T06:35:31;101039.50;;;17.43;52.21
8575;BME280;4325;42.520;27.448;2023-11-21T06:38:00;101045.78;;;18.20;49.56
8575;BME280;4325;42.520;27.448;2023-11-21T06:40:29;101030.16;;;19.16;46.72
8575;BME280;4325;42.520;27.448;2023-11-21T06:42:56;101036.56;;;19.25;45.34
8575;BME280;4325;42.520;27.448;2023-11-21T06:45:24;101037.09;;;19.36;44.53
8575;BME280;4325;42.520;27.448;2023-11-21T06:47:51;101037.50;;;19.51;43.29
8575;BME280;4325;42.520;27.448;2023-11-21T06:50:20;101036.00;;;19.45;43.08
8575;BME280;4325;42.520;27.448;2023-11-21T06:52:47;101051.53;;;19.16;43.89
8575;BME280;4325;42.520;27.448;2023-11-21T06:55:15;101050.38;;;18.02;45.25
8575;BME280;4325;42.520;27.448;2023-11-21T06:57:44;101047.09;;;16.96;49.35
8575;BME280;4325;42.520;27.448;2023-11-21T07:00:13;101047.31;;;16.73;50.30
8575;BME280;4325;42.520;27.448;2023-11-21T07:02:43;101051.91;;;16.77;50.88
8575;BME280;4325;42.520;27.448;2023-11-21T07:05:10;101043.41;;;17.42;49.46
8575;BME280;4325;42.520;27.448;2023-11-21T07:07:37;101037.91;;;17.91;48.44
8575;BME280;4325;42.520;27.448;2023-11-21T07:10:05;101042.19;;;18.41;47.37
8575;BME280;4325;42.520;27.448;2023-11-21T07:12:32;101034.47;;;18.83;45.06
8575;BME280;4325;42.520;27.448;2023-11-21T07:15:00;101035.31;;;18.92;45.02
8575;BME280;4325;42.520;27.448;2023-11-21T07:17:28;101031.75;;;19.00;44.78
8575;BME280;4325;42.520;27.448;2023-11-21T07:19:54;101040.28;;;19.12;44.80
8575;BME280;4325;42.520;27.448;2023-11-21T07:22:21;101027.47;;;18.94;44.53
8575;BME280;4325;42.520;27.448;2023-11-21T07:24:48;101025.28;;;17.85;46.83
8575;BME280;4325;42.520;27.448;2023-11-21T07:27:16;101032.00;;;16.16;51.05
8575;BME280;4325;42.520;27.448;2023-11-21T07:29:44;101023.31;;;15.05;56.76
8575;BME280;4325;42.520;27.448;2023-11-21T07:32:12;101033.31;;;14.15;64.45
8575;BME280;4325;42.520;27.448;2023-11-21T07:34:40;101034.91;;;14.21;67.56
8575;BME280;4325;42.520;27.448;2023-11-21T07:37:09;101023.19;;;14.68;64.88
8575;BME280;4325;42.520;27.448;2023-11-21T07:39:35;101027.25;;;14.99;62.02
8575;BME280;4325;42.520;27.448;2023-11-21T07:42:03;101023.09;;;15.02;61.49
8575;BME280;4325;42.520;27.448;2023-11-21T07:44:30;101020.91;;;14.75;62.75
8575;BME280;4325;42.520;27.448;2023-11-21T07:46:57;101028.06;;;14.52;65.53
8575;BME280;4325;42.520;27.448;2023-11-21T07:49:25;101033.88;;;14.46;67.41
8575;BME280;4325;42.520;27.448;2023-11-21T07:51:52;101038.03;;;14.10;70.52
8575;BME280;4325;42.520;27.448;2023-11-21T07:54:19;101027.88;;;14.05;73.14
8575;BME280;4325;42.520;27.448;2023-11-21T07:56:46;101035.69;;;13.93;75.39
8575;BME280;4325;42.520;27.448;2023-11-21T07:59:13;101025.09;;;13.76;77.67
8575;BME280;4325;42.520;27.448;2023-11-21T08:01:40;101021.41;;;13.91;78.38
8575;BME280;4325;42.520;27.448;2023-11-21T08:04:08;101024.91;;;14.02;79.02
8575;BME280;4325;42.520;27.448;2023-11-21T08:06:37;101021.06;;;13.98;79.55
8575;BME280;4325;42.520;27.448;2023-11-21T08:09:04;101033.56;;;14.19;78.32
8575;BME280;4325;42.520;27.448;2023-11-21T08:11:31;101033.22;;;14.25;86.64
8575;BME280;4325;42.520;27.448;2023-11-21T08:13:58;101032.88;;;14.37;80.31
8575;BME280;4325;42.520;27.448;2023-11-21T08:16:25;101030.47;;;14.30;80.19
8575;BME280;4325;42.520;27.448;2023-11-21T08:18:52;101008.19;;;13.88;83.45
8575;BME280;4325;42.520;27.448;2023-11-21T08:21:20;101024.44;;;14.23;83.01
8575;BME280;4325;42.520;27.448;2023-11-21T08:23:50;101025.19;;;14.63;79.74
8575;BME280;4325;42.520;27.448;2023-11-21T08:26:19;101013.75;;;15.45;74.29
8575;BME280;4325;42.520;27.448;2023-11-21T08:28:47;101013.75;;;15.64;70.35
8575;BME280;4325;42.520;27.448;2023-11-21T08:31:17;101012.44;;;15.38;71.13
8575;BME280;4325;42.520;27.448;2023-11-21T08:33:44;101012.91;;;15.21;73.87
8575;BME280;4325;42.520;27.448;2023-11-21T08:36:11;101025.47;;;14.85;76.44
8575;BME280;4325;42.520;27.448;2023-11-21T08:38:38;101026.41;;;14.51;81.34
8575;BME280;4325;42.520;27.448;2023-11-21T08:41:08;101016.16;;;14.57;83.83
8575;BME280;4325;42.520;27.448;2023-11-21T08:43:35;101018.38;;;14.55;83.87
8575;BME280;4325;42.520;27.448;2023-11-21T08:46:05;101003.31;;;14.47;84.91
8575;BME280;4325;42.520;27.448;2023-11-21T08:48:35;101005.88;;;14.63;84.83
8575;BME280;4325;42.520;27.448;2023-11-21T08:51:02;101001.69;;;14.94;82.55
8575;BME280;4325;42.520;27.448;2023-11-21T08:53:29;100998.91;;;15.36;78.07
8575;BME280;4325;42.520;27.448;2023-11-21T08:55:56;101000.81;;;15.78;75.58
8575;BME280;4325;42.520;27.448;2023-11-21T08:58:25;100989.78;;;17.87;63.95
8575;BME280;4325;42.520;27.448;2023-11-21T09:00:52;100993.75;;;21.01;50.96
8575;BME280;4325;42.520;27.448;2023-11-21T09:03:19;100993.47;;;23.40;43.56
8575;BME280;4325;42.520;27.448;2023-11-21T09:05:46;100976.47;;;25.69;39.24
8575;BME280;4325;42.520;27.448;2023-11-21T09:08:13;100979.19;;;27.63;33.76
8575;BME280;4325;42.520;27.448;2023-11-21T09:10:39;100986.97;;;28.72;32.22
8575;BME280;4325;42.520;27.448;2023-11-21T09:13:08;100993.78;;;28.31;31.91
8575;BME280;4325;42.520;27.448;2023-11-21T09:15:37;100987.66;;;29.03;30.92
8575;BME280;4325;42.520;27.448;2023-11-21T09:18:04;100984.16;;;30.96;29.60
8575;BME280;4325;42.520;27.448;2023-11-21T09:20:31;100982.81;;;33.57;26.56
8575;BME280;4325;42.520;27.448;2023-11-21T09:22:58;100982.91;;;35.24;24.36
8575;BME280;4325;42.520;27.448;2023-11-21T09:25:25;100981.94;;;36.16;23.17
8575;BME280;4325;42.520;27.448;2023-11-21T09:27:54;100976.72;;;35.92;22.28
8575;BME280;4325;42.520;27.448;2023-11-21T09:30:22;100981.63;;;34.79;22.84
8575;BME280;4325;42.520;27.448;2023-11-21T09:32:51;100975.78;;;34.63;23.05
8575;BME280;4325;42.520;27.448;2023-11-21T09:35:19;100971.53;;;32.47;25.05
8575;BME280;4325;42.520;27.448;2023-11-21T09:37:46;100963.78;;;31.82;25.89
8575;BME280;4325;42.520;27.448;2023-11-21T09:40:13;100963.81;;;31.68;26.09
8575;BME280;4325;42.520;27.448;2023-11-21T09:42:48;100951.41;;;32.34;25.30
8575;BME280;4325;42.520;27.448;2023-11-21T09:45:21;100966.25;;;33.85;24.14
8575;BME280;4325;42.520;27.448;2023-11-21T09:47:52;100944.41;;;33.42;24.65
8575;BME280;4325;42.520;27.448;2023-11-21T09:50:20;100942.66;;;34.49;24.35
8575;BME280;4325;42.520;27.448;2023-11-21T09:52:55;100955.91;;;35.75;23.07
8575;BME280;4325;42.520;27.448;2023-11-21T09:55:27;100939.16;;;35.14;22.66
8575;BME280;4325;42.520;27.448;2023-11-21T09:57:56;100936.81;;;35.09;22.77
8575;BME280;4325;42.520;27.448;2023-11-21T10:00:23;100933.94;;;35.33;22.28
8575;BME280;4325;42.520;27.448;2023-11-21T10:02:56;100924.50;;;35.59;21.85
8575;BME280;4325;42.520;27.448;2023-11-21T10:05:24;100918.38;;;35.60;21.49
8575;BME280;4325;42.520;27.448;2023-11-21T10:07:52;100913.13;;;36.66;21.24
8575;BME280;4325;42.520;27.448;2023-11-21T10:10:21;100921.03;;;37.07;20.05
8575;BME280;4325;42.520;27.448;2023-11-21T10:12:49;100915.25;;;36.10;20.02
8575;BME280;4325;42.520;27.448;2023-11-21T10:15:21;100912.81;;;36.44;20.04
8575;BME280;4325;42.520;27.448;2023-11-21T10:17:49;100911.78;;;36.55;20.26
8575;BME280;4325;42.520;27.448;2023-11-21T10:20:20;100918.56;;;35.69;20.31
8575;BME280;4325;42.520;27.448;2023-11-21T10:22:47;100909.00;;;35.60;20.59
8575;BME280;4325;42.520;27.448;2023-11-21T10:25:14;100907.91;;;35.54;20.40
8575;BME280;4325;42.520;27.448;2023-11-21T10:27:42;100906.84;;;35.01;21.36
8575;BME280;4325;42.520;27.448;2023-11-21T10:30:10;100907.41;;;34.16;21.57
8575;BME280;4325;42.520;27.448;2023-11-21T10:32:39;100903.50;;;34.07;22.21
8575;BME280;4325;42.520;27.448;2023-11-21T10:35:08;100893.94;;;35.79;22.00
8575;BME280;4325;42.520;27.448;2023-11-21T10:37:38;100899.28;;;37.70;19.24
8575;BME280;4325;42.520;27.448;2023-11-21T10:40:07;100899.53;;;38.30;18.76
8575;BME280;4325;42.520;27.448;2023-11-21T10:42:34;100883.38;;;39.64;17.57
8575;BME280;4325;42.520;27.448;2023-11-21T10:45:03;100882.88;;;39.87;17.74
8575;BME280;4325;42.520;27.448;2023-11-21T10:47:35;100874.97;;;40.80;16.88
8575;BME280;4325;42.520;27.448;2023-11-21T10:50:04;100874.75;;;40.56;16.89
8575;BME280;4325;42.520;27.448;2023-11-21T10:52:31;100866.94;;;39.43;17.54
8575;BME280;4325;42.520;27.448;2023-11-21T10:55:00;100871.72;;;39.89;17.42
8575;BME280;4325;42.520;27.448;2023-11-21T10:57:29;100876.94;;;40.03;17.25
8575;BME280;4325;42.520;27.448;2023-11-21T10:59:57;100867.31;;;39.67;17.21
8575;BME280;4325;42.520;27.448;2023-11-21T11:02:25;100857.34;;;38.68;18.05
8575;BME280;4325;42.520;27.448;2023-11-21T11:04:53;100861.47;;;38.67;17.84
8575;BME280;4325;42.520;27.448;2023-11-21T11:07:21;100858.44;;;38.96;18.41
8575;BME280;4325;42.520;27.448;2023-11-21T11:09:51;100854.28;;;39.53;17.53
8575;BME280;4325;42.520;27.448;2023-11-21T11:12:20;100858.28;;;36.42;19.34
8575;BME280;4325;42.520;27.448;2023-11-21T11:14:48;100850.53;;;35.91;20.03
8575;BME280;4325;42.520;27.448;2023-11-21T11:17:15;100844.38;;;36.77;19.97
8575;BME280;4325;42.520;27.448;2023-11-21T11:19:46;100848.50;;;37.62;19.32
8575;BME280;4325;42.520;27.448;2023-11-21T11:22:24;100839.25;;;39.40;18.13
8575;BME280;4325;42.520;27.448;2023-11-21T11:25:10;100833.50;;;41.26;17.18
8575;BME280;4325;42.520;27.448;2023-11-21T11:27:51;100842.53;;;42.78;16.06
8575;BME280;4325;42.520;27.448;2023-11-21T11:30:30;100841.09;;;43.73;15.51
8575;BME280;4325;42.520;27.448;2023-11-21T11:33:10;100834.53;;;44.57;14.63
8575;BME280;4325;42.520;27.448;2023-11-21T11:35:48;100825.53;;;45.36;14.34
8575;BME280;4325;42.520;27.448;2023-11-21T11:38:21;100819.69;;;44.29;14.50
8575;BME280;4325;42.520;27.448;2023-11-21T11:40:52;100820.69;;;44.26;14.99
8575;BME280;4325;42.520;27.448;2023-11-21T11:43:26;100810.19;;;44.43;14.88
8575;BME280;4325;42.520;27.448;2023-11-21T11:45:55;100821.50;;;44.27;14.98
8575;BME280;4325;42.520;27.448;2023-11-21T11:48:24;100812.28;;;43.64;14.94
8575;BME280;4325;42.520;27.448;2023-11-21T11:51:04;100810.75;;;42.96;15.79
8575;BME280;4325;42.520;27.448;2023-11-21T11:53:39;100809.78;;;42.51;15.63
8575;BME280;4325;42.520;27.448;2023-11-21T11:56:24;100804.63;;;41.90;16.31
8575;BME280;4325;42.520;27.448;2023-11-21T11:58:54;100800.63;;;42.29;16.31
8575;BME280;4325;42.520;27.448;2023-11-21T12:01:22;100802.31;;;42.12;15.70
8575;BME280;4325;42.520;27.448;2023-11-21T12:04:23;100796.72;;;39.17;17.30
8575;BME280;4325;42.520;27.448;2023-11-21T12:06:57;100787.09;;;37.41;19.25
8575;BME280;4325;42.520;27.448;2023-11-21T12:09:26;100778.66;;;37.50;19.24
8575;BME280;4325;42.520;27.448;2023-11-21T12:11:53;100782.66;;;35.31;20.19
8575;BME280;4325;42.520;27.448;2023-11-21T12:14:23;100768.47;;;32.71;23.12
8575;BME280;4325;42.520;27.448;2023-11-21T12:16:51;100770.78;;;31.04;24.92
8575;BME280;4325;42.520;27.448;2023-11-21T12:19:18;100776.53;;;30.01;25.81
8575;BME280;4325;42.520;27.448;2023-11-21T12:21:48;100766.78;;;29.74;26.48
8575;BME280;4325;42.520;27.448;2023-11-21T12:24:16;100771.50;;;29.28;27.32
8575;BME280;4325;42.520;27.448;2023-11-21T12:26:43;100759.41;;;29.31;27.51
8575;BME280;4325;42.520;27.448;2023-11-21T12:29:11;100759.13;;;29.64;27.14
8575;BME280;4325;42.520;27.448;2023-11-21T12:31:39;100762.66;;;29.40;27.35
8575;BME280;4325;42.520;27.448;2023-11-21T12:34:07;100755.16;;;28.83;27.82
8575;BME280;4325;42.520;27.448;2023-11-21T12:36:37;100752.06;;;29.09;28.16
8575;BME280;4325;42.520;27.448;2023-11-21T12:39:04;100749.84;;;29.67;27.44
8575;BME280;4325;42.520;27.448;2023-11-21T12:41:31;100754.75;;;30.41;26.81
8575;BME280;4325;42.520;27.448;2023-11-21T12:43:58;100749.00;;;30.97;25.98
8575;BME280;4325;42.520;27.448;2023-11-21T12:46:26;100755.88;;;31.76;25.50
8575;BME280;4325;42.520;27.448;2023-11-21T12:48:57;100755.50;;;32.25;24.53
8575;BME280;4325;42.520;27.448;2023-11-21T12:51:25;100756.34;;;33.04;23.72
8575;BME280;4325;42.520;27.448;2023-11-21T12:53:52;100743.69;;;32.75;23.76
8575;BME280;4325;42.520;27.448;2023-11-21T12:56:21;100743.19;;;31.98;24.62
8575;BME280;4325;42.520;27.448;2023-11-21T12:58:48;100747.03;;;31.70;25.40
8575;BME280;4325;42.520;27.448;2023-11-21T13:01:17;100746.59;;;30.92;26.50
8575;BME280;4325;42.520;27.448;2023-11-21T13:03:47;100757.91;;;27.77;29.79
8575;BME280;4325;42.520;27.448;2023-11-21T13:06:19;100749.97;;;27.46;30.81